createdAt,value
2023-01-20T00:00:26.972Z,17.40
2023-01-20T00:01:50.815Z,16.50
2023-01-20T00:02:56.079Z,15.90
2023-01-20T00:03:59.613Z,16.60
2023-01-20T00:05:03.044Z,17.10
2023-01-20T00:06:07.014Z,16.50
2023-01-20T00:07:13.034Z,15.80
2023-01-20T00:08:16.227Z,15.90
2023-01-20T00:09:19.483Z,15.80
2023-01-20T00:10:23.501Z,15.50
2023-01-20T00:11:28.416Z,16.30
2023-01-20T00:12:32.261Z,15.70
2023-01-20T00:13:36.450Z,15.80
2023-01-20T00:14:39.456Z,16.60
2023-01-20T00:15:43.133Z,15.50
2023-01-20T00:16:46.164Z,16.50
2023-01-20T00:17:49.307Z,17.40
2023-01-20T00:18:53.598Z,16.00
2023-01-20T00:19:56.867Z,16.70
2023-01-20T00:21:11.800Z,16.70
2023-01-20T00:22:15.989Z,16.80
2023-01-20T00:23:19.316Z,16.80
2023-01-20T00:24:22.373Z,16.60
2023-01-20T00:25:25.357Z,16.50
2023-01-20T00:26:28.497Z,14.90
2023-01-20T00:27:31.902Z,17.20
2023-01-20T00:28:36.304Z,16.90
2023-01-20T00:29:39.375Z,16.90
2023-01-20T00:30:42.440Z,17.40
2023-01-20T00:31:45.511Z,17.20
2023-01-20T00:32:48.544Z,16.00
2023-01-20T00:33:54.749Z,17.20
2023-01-20T00:34:58.073Z,17.70
2023-01-20T00:36:01.344Z,16.40
2023-01-20T00:37:05.148Z,17.40
2023-01-20T00:38:08.261Z,17.10
2023-01-20T00:39:11.690Z,16.70
2023-01-20T00:40:16.176Z,16.70
2023-01-20T00:41:19.653Z,16.90
2023-01-20T00:42:22.740Z,16.30
2023-01-20T00:43:26.068Z,16.90
2023-01-20T00:44:29.335Z,16.60
2023-01-20T00:45:32.351Z,16.70
2023-01-20T00:46:35.371Z,15.90
2023-01-20T00:47:38.808Z,16.80
2023-01-20T00:48:42.418Z,17.20
2023-01-20T00:49:45.690Z,16.80
2023-01-20T00:50:49.463Z,16.50
2023-01-20T00:51:52.540Z,17.10
2023-01-20T00:52:55.661Z,16.50
2023-01-20T00:53:58.994Z,15.90
2023-01-20T00:55:02.576Z,16.10
2023-01-20T00:56:06.407Z,16.00
2023-01-20T00:57:11.680Z,15.20
2023-01-20T00:58:35.729Z,15.50
2023-01-20T00:59:38.825Z,15.20
2023-01-20T01:00:42.194Z,16.00
2023-01-20T01:01:46.342Z,15.30
2023-01-20T01:02:49.399Z,15.70
2023-01-20T01:03:54.446Z,16.60
2023-01-20T01:04:57.758Z,17.10
2023-01-20T01:06:16.173Z,15.80
2023-01-20T01:07:20.414Z,15.00
2023-01-20T01:08:23.487Z,15.00
2023-01-20T01:09:26.467Z,15.60
2023-01-20T01:10:29.700Z,16.10
2023-01-20T01:11:34.969Z,15.50
2023-01-20T01:12:39.818Z,15.90
2023-01-20T01:13:43.099Z,15.10
2023-01-20T01:14:47.807Z,14.60
2023-01-20T01:15:51.978Z,15.50
2023-01-20T01:16:57.379Z,15.40
2023-01-20T01:18:01.206Z,16.00
2023-01-20T01:19:05.418Z,15.60
2023-01-20T01:20:09.664Z,16.30
2023-01-20T01:21:16.746Z,16.20
2023-01-20T01:22:21.296Z,14.90
2023-01-20T01:23:24.412Z,15.20
2023-01-20T01:24:27.399Z,16.10
2023-01-20T01:25:30.908Z,16.00
2023-01-20T01:26:34.388Z,15.30
2023-01-20T01:27:37.541Z,16.30
2023-01-20T01:28:41.041Z,16.00
2023-01-20T01:29:44.100Z,16.40
2023-01-20T01:30:47.152Z,15.90
2023-01-20T01:31:50.221Z,16.50
2023-01-20T01:32:53.394Z,15.80
2023-01-20T01:33:59.328Z,16.10
2023-01-20T01:35:06.517Z,15.30
2023-01-20T01:36:16.614Z,16.20
2023-01-20T01:37:21.354Z,15.70
2023-01-20T01:38:29.647Z,16.70
2023-01-20T01:39:32.813Z,15.30
2023-01-20T01:40:37.427Z,16.40
2023-01-20T01:41:40.772Z,16.20
2023-01-20T01:42:45.163Z,16.10
2023-01-20T01:44:09.999Z,15.90
2023-01-20T01:45:18.611Z,17.00
2023-01-20T01:46:24.954Z,16.40
2023-01-20T01:47:28.052Z,16.30
2023-01-20T01:48:37.040Z,16.60
2023-01-20T01:49:40.313Z,15.20
2023-01-20T01:50:48.710Z,17.00
2023-01-20T01:51:57.573Z,15.70
2023-01-20T01:53:01.543Z,15.70
2023-01-20T01:54:11.493Z,16.90
2023-01-20T01:55:17.663Z,16.20
2023-01-20T01:56:26.133Z,16.70
2023-01-20T01:57:32.032Z,16.10
2023-01-20T01:58:39.053Z,17.00
2023-01-20T01:59:43.732Z,16.70
2023-01-20T02:00:47.788Z,17.30
2023-01-20T02:01:55.942Z,17.40
2023-01-20T02:02:59.527Z,17.80
2023-01-20T02:04:12.198Z,16.60
2023-01-20T02:05:22.337Z,17.30
2023-01-20T02:06:35.311Z,17.60
2023-01-20T02:07:39.354Z,18.10
2023-01-20T02:08:44.949Z,16.20
2023-01-20T02:09:48.315Z,17.70
2023-01-20T02:10:51.322Z,17.80
2023-01-20T02:12:00.285Z,21.20
2023-01-20T02:13:04.292Z,17.40
2023-01-20T02:14:08.792Z,17.80
2023-01-20T02:15:11.834Z,16.90
2023-01-20T02:16:44.908Z,17.70
2023-01-20T02:18:02.502Z,17.80
2023-01-20T02:19:35.036Z,17.50
2023-01-20T02:20:59.612Z,16.90
2023-01-20T02:22:25.125Z,17.30
2023-01-20T02:23:44.136Z,18.00
2023-01-20T02:25:24.207Z,18.00
2023-01-20T02:26:48.769Z,18.30
2023-01-20T02:28:24.415Z,16.40
2023-01-20T02:29:49.139Z,18.10
2023-01-20T02:32:01.050Z,17.30
2023-01-20T02:33:17.699Z,17.60
2023-01-20T02:34:33.220Z,17.90
2023-01-20T02:35:46.898Z,18.30
2023-01-20T02:37:15.198Z,17.70
2023-01-20T02:38:27.242Z,17.60
2023-01-20T02:40:07.084Z,17.30
2023-01-20T02:41:21.131Z,18.00
2023-01-20T02:43:03.440Z,17.70
2023-01-20T02:44:38.620Z,18.70
2023-01-20T02:45:44.663Z,18.40
2023-01-20T02:47:14.514Z,16.70
2023-01-20T02:48:20.211Z,18.10
2023-01-20T02:49:26.638Z,17.40
2023-01-20T02:50:35.428Z,18.00
2023-01-20T02:51:54.076Z,18.30
2023-01-20T02:52:59.956Z,17.30
2023-01-20T02:54:08.406Z,18.20
2023-01-20T02:55:17.343Z,17.60
2023-01-20T02:56:24.951Z,17.00
2023-01-20T02:57:32.946Z,17.10
2023-01-20T02:58:46.272Z,18.40
2023-01-20T02:59:54.779Z,17.60
2023-01-20T03:01:25.062Z,19.40
2023-01-20T03:02:29.688Z,17.60
2023-01-20T03:03:39.055Z,17.40
2023-01-20T03:04:49.801Z,17.90
2023-01-20T03:05:56.718Z,17.70
2023-01-20T03:07:01.451Z,17.50
2023-01-20T03:08:08.708Z,18.20
2023-01-20T03:09:16.020Z,18.60
2023-01-20T03:10:22.541Z,18.40
2023-01-20T03:11:29.438Z,18.00
2023-01-20T03:12:42.276Z,18.70
2023-01-20T03:14:10.777Z,17.40
2023-01-20T03:15:14.894Z,18.00
2023-01-20T03:16:21.520Z,19.50
2023-01-20T03:17:24.804Z,17.10
2023-01-20T03:18:32.801Z,17.70
2023-01-20T03:19:36.221Z,16.50
2023-01-20T03:20:39.254Z,18.00
2023-01-20T03:21:42.334Z,17.00
2023-01-20T03:22:45.435Z,17.30
2023-01-20T03:23:54.739Z,17.00
2023-01-20T03:24:59.362Z,17.50
2023-01-20T03:26:09.308Z,17.50
2023-01-20T03:27:13.406Z,18.20
2023-01-20T03:28:16.411Z,17.90
2023-01-20T03:29:19.599Z,19.10
2023-01-20T03:30:25.016Z,16.30
2023-01-20T03:31:34.567Z,16.60
2023-01-20T03:32:38.165Z,17.40
2023-01-20T03:33:49.488Z,18.00
2023-01-20T03:34:56.149Z,16.90
2023-01-20T03:35:59.389Z,17.60
2023-01-20T03:37:05.223Z,18.10
2023-01-20T03:38:10.263Z,17.50
2023-01-20T03:39:13.895Z,16.80
2023-01-20T03:40:17.585Z,16.80
2023-01-20T03:41:38.847Z,16.80
2023-01-20T03:42:59.955Z,18.10
2023-01-20T03:44:33.984Z,17.30
2023-01-20T03:46:01.133Z,16.40
2023-01-20T03:47:21.189Z,17.40
2023-01-20T03:48:41.901Z,17.60
2023-01-20T03:50:04.274Z,17.10
2023-01-20T03:51:18.328Z,16.90
2023-01-20T03:52:47.104Z,17.10
2023-01-20T03:53:59.887Z,18.00
2023-01-20T03:55:14.534Z,16.50
2023-01-20T03:56:28.674Z,17.50
2023-01-20T03:57:39.973Z,17.70
2023-01-20T03:58:47.718Z,17.40
2023-01-20T03:59:52.498Z,17.20
2023-01-20T04:00:57.822Z,17.30
2023-01-20T04:02:07.918Z,18.00
2023-01-20T04:03:16.559Z,16.90
2023-01-20T04:04:20.323Z,17.70
2023-01-20T04:05:23.902Z,17.60
2023-01-20T04:06:29.078Z,18.80
2023-01-20T04:07:33.079Z,17.90
2023-01-20T04:08:44.049Z,18.00
2023-01-20T04:09:52.369Z,18.40
2023-01-20T04:10:59.306Z,17.40
2023-01-20T04:12:02.666Z,17.30
2023-01-20T04:13:05.877Z,17.80
2023-01-20T04:14:09.922Z,16.80
2023-01-20T04:15:13.489Z,19.50
2023-01-20T04:16:19.080Z,19.70
2023-01-20T04:17:27.790Z,19.40
2023-01-20T04:18:30.913Z,18.30
2023-01-20T04:19:34.068Z,18.70
2023-01-20T04:20:37.352Z,18.10
2023-01-20T04:21:45.121Z,17.70
2023-01-20T04:22:56.139Z,18.40
2023-01-20T04:24:05.083Z,18.40
2023-01-20T04:25:17.724Z,18.60
2023-01-20T04:26:20.692Z,17.40
2023-01-20T04:27:23.753Z,19.20
2023-01-20T04:28:27.663Z,18.90
2023-01-20T04:29:30.852Z,19.60
2023-01-20T04:30:33.941Z,18.10
2023-01-20T04:31:38.952Z,18.90
2023-01-20T04:32:41.952Z,18.90
2023-01-20T04:33:45.006Z,18.30
2023-01-20T04:34:51.306Z,18.30
2023-01-20T04:35:54.348Z,18.10
2023-01-20T04:36:57.350Z,18.40
2023-01-20T04:38:00.415Z,17.90
2023-01-20T04:39:03.583Z,17.00
2023-01-20T04:40:07.572Z,17.30
2023-01-20T04:41:11.789Z,18.50
2023-01-20T04:42:14.807Z,18.60
2023-01-20T04:43:18.648Z,18.80
2023-01-20T04:44:21.953Z,18.30
2023-01-20T04:45:25.177Z,18.20
2023-01-20T04:46:28.236Z,18.20
2023-01-20T04:47:33.769Z,17.80
2023-01-20T04:48:36.781Z,18.50
2023-01-20T04:49:39.846Z,18.50
2023-01-20T04:50:44.047Z,18.20
2023-01-20T04:51:47.660Z,17.70
2023-01-20T04:52:56.022Z,18.20
2023-01-20T04:54:00.344Z,19.00
2023-01-20T04:55:04.630Z,17.80
2023-01-20T04:56:12.452Z,17.30
2023-01-20T04:57:15.594Z,18.10
2023-01-20T04:58:18.944Z,19.00
2023-01-20T04:59:24.894Z,19.20
2023-01-20T05:00:28.843Z,17.80
2023-01-20T05:01:32.438Z,17.50
2023-01-20T05:02:35.929Z,19.40
2023-01-20T05:03:39.967Z,18.10
2023-01-20T05:04:43.537Z,18.20
2023-01-20T05:05:54.582Z,19.50
2023-01-20T05:06:58.129Z,17.70
2023-01-20T05:08:01.712Z,17.80
2023-01-20T05:09:05.281Z,17.70
2023-01-20T05:10:09.725Z,18.60
2023-01-20T05:11:13.229Z,19.60
2023-01-20T05:12:16.642Z,19.40
2023-01-20T05:13:19.909Z,18.40
2023-01-20T05:14:25.766Z,18.70
2023-01-20T05:15:29.013Z,19.20
2023-01-20T05:16:34.090Z,19.30
2023-01-20T05:17:37.371Z,19.30
2023-01-20T05:18:40.974Z,20.10
2023-01-20T05:19:44.363Z,20.20
2023-01-20T05:20:49.179Z,19.30
2023-01-20T05:21:52.421Z,18.90
2023-01-20T05:23:00.492Z,19.30
2023-01-20T05:24:05.191Z,19.60
2023-01-20T05:25:09.286Z,19.70
2023-01-20T05:26:12.865Z,21.30
2023-01-20T05:27:15.882Z,20.00
2023-01-20T05:28:22.396Z,21.40
2023-01-20T05:29:25.448Z,21.60
2023-01-20T05:30:28.719Z,20.00
2023-01-20T05:31:33.872Z,22.30
2023-01-20T05:32:37.123Z,21.60
2023-01-20T05:33:40.285Z,21.20
2023-01-20T05:34:43.376Z,20.80
2023-01-20T05:35:46.572Z,21.60
2023-01-20T05:36:54.023Z,20.30
2023-01-20T05:37:56.973Z,20.80
2023-01-20T05:39:00.731Z,21.90
2023-01-20T05:40:04.575Z,20.60
2023-01-20T05:41:09.738Z,20.20
2023-01-20T05:42:14.890Z,21.00
2023-01-20T05:43:18.020Z,20.70
2023-01-20T05:44:21.064Z,19.90
2023-01-20T05:45:25.896Z,20.00
2023-01-20T05:46:29.005Z,19.70
2023-01-20T05:47:32.158Z,19.70
2023-01-20T05:48:35.211Z,19.50
2023-01-20T05:49:38.469Z,19.90
2023-01-20T05:50:42.213Z,20.50
2023-01-20T05:51:45.243Z,20.60
2023-01-20T05:52:49.544Z,20.70
2023-01-20T05:53:52.596Z,21.70
2023-01-20T05:54:55.765Z,20.20
2023-01-20T05:56:03.992Z,20.70
2023-01-20T05:57:07.163Z,21.40
2023-01-20T05:58:10.592Z,20.80
2023-01-20T05:59:13.780Z,21.30
2023-01-20T06:00:20.310Z,20.60
2023-01-20T06:01:24.096Z,20.90
2023-01-20T06:02:30.868Z,20.90
2023-01-20T06:03:34.451Z,21.10
2023-01-20T06:04:37.542Z,20.90
2023-01-20T06:05:40.765Z,21.80
2023-01-20T06:06:43.775Z,20.40
2023-01-20T06:07:46.867Z,21.50
2023-01-20T06:08:52.746Z,20.10
2023-01-20T06:09:57.234Z,20.20
2023-01-20T06:11:00.274Z,19.50
2023-01-20T06:12:03.387Z,19.50
2023-01-20T06:13:06.349Z,20.10
2023-01-20T06:14:09.371Z,19.60
2023-01-20T06:15:12.614Z,20.40
2023-01-20T06:16:19.500Z,20.60
2023-01-20T06:17:23.942Z,20.40
2023-01-20T06:18:27.196Z,19.00
2023-01-20T06:19:30.264Z,19.10
2023-01-20T06:20:33.347Z,17.90
2023-01-20T06:21:36.390Z,20.70
2023-01-20T06:22:39.334Z,19.40
2023-01-20T06:23:42.375Z,20.80
2023-01-20T06:24:45.418Z,20.50
2023-01-20T06:25:48.444Z,20.90
2023-01-20T06:26:51.567Z,19.70
2023-01-20T06:27:54.609Z,19.90
2023-01-20T06:29:03.190Z,20.30
2023-01-20T06:30:07.387Z,19.00
2023-01-20T06:31:13.675Z,20.80
2023-01-20T06:32:16.888Z,20.40
2023-01-20T06:33:19.899Z,20.40
2023-01-20T06:34:23.031Z,19.60
2023-01-20T06:35:26.732Z,20.00
2023-01-20T06:36:29.969Z,21.60
2023-01-20T06:37:33.027Z,21.00
2023-01-20T06:38:36.125Z,20.60
2023-01-20T06:39:40.382Z,20.90
2023-01-20T06:40:43.291Z,20.20
2023-01-20T06:41:46.703Z,20.80
2023-01-20T06:42:49.816Z,21.40
2023-01-20T06:43:52.872Z,21.80
2023-01-20T06:44:55.821Z,21.90
2023-01-20T06:46:06.238Z,21.70
2023-01-20T06:47:10.117Z,22.10
2023-01-20T06:48:13.165Z,22.10
2023-01-20T06:49:16.211Z,21.40
2023-01-20T06:50:19.367Z,21.60
2023-01-20T06:51:22.316Z,22.20
2023-01-20T06:52:25.568Z,22.60
2023-01-20T06:53:29.142Z,22.10
2023-01-20T06:54:32.195Z,20.90
2023-01-20T06:55:35.041Z,21.00
2023-01-20T06:56:37.928Z,21.70
2023-01-20T06:57:40.921Z,22.50
2023-01-20T06:58:45.053Z,21.20
2023-01-20T06:59:48.046Z,21.30
2023-01-20T07:00:52.360Z,22.10
2023-01-20T07:01:55.496Z,20.50
2023-01-20T07:02:58.936Z,20.90
2023-01-20T07:04:02.208Z,21.30
2023-01-20T07:05:08.197Z,20.70
2023-01-20T07:06:22.856Z,21.50
2023-01-20T07:07:25.971Z,21.20
2023-01-20T07:08:29.422Z,21.30
2023-01-20T07:09:32.851Z,22.60
2023-01-20T07:10:36.183Z,22.60
2023-01-20T07:11:39.763Z,21.90
2023-01-20T07:12:42.752Z,23.20
2023-01-20T07:13:45.746Z,23.90
2023-01-20T07:14:48.864Z,22.50
2023-01-20T07:15:52.841Z,23.30
2023-01-20T07:16:55.783Z,22.10
2023-01-20T07:17:59.062Z,23.40
2023-01-20T07:19:02.546Z,23.80
2023-01-20T07:20:06.042Z,23.20
2023-01-20T07:21:11.374Z,23.00
2023-01-20T07:22:16.672Z,23.00
2023-01-20T07:23:19.828Z,22.00
2023-01-20T07:24:22.826Z,22.70
2023-01-20T07:25:26.033Z,23.30
2023-01-20T07:26:29.511Z,22.60
2023-01-20T07:27:32.511Z,22.00
2023-01-20T07:28:36.561Z,23.70
2023-01-20T07:29:40.629Z,22.70
2023-01-20T07:30:43.688Z,23.10
2023-01-20T07:31:46.953Z,21.60
2023-01-20T07:32:50.177Z,22.50
2023-01-20T07:33:55.394Z,24.30
2023-01-20T07:34:58.606Z,23.60
2023-01-20T07:36:02.140Z,25.00
2023-01-20T07:37:05.078Z,24.60
2023-01-20T07:38:07.992Z,23.40
2023-01-20T07:39:13.115Z,24.50
2023-01-20T07:40:16.248Z,24.80
2023-01-20T07:41:20.315Z,21.60
2023-01-20T07:42:23.261Z,24.40
2023-01-20T07:43:26.463Z,24.20
2023-01-20T07:44:29.458Z,24.90
2023-01-20T07:45:32.492Z,23.70
2023-01-20T07:46:35.687Z,25.00
2023-01-20T07:47:38.735Z,25.40
2023-01-20T07:48:42.214Z,24.50
2023-01-20T07:49:45.269Z,24.10
2023-01-20T07:50:48.249Z,24.70
2023-01-20T07:51:51.418Z,25.00
2023-01-20T07:52:54.730Z,25.30
2023-01-20T07:53:57.749Z,24.50
2023-01-20T07:55:00.714Z,24.70
2023-01-20T07:56:15.783Z,26.70
2023-01-20T07:57:19.117Z,26.10
2023-01-20T07:58:22.063Z,25.60
2023-01-20T07:59:25.099Z,24.60
2023-01-20T08:00:28.046Z,24.60
2023-01-20T08:01:33.027Z,24.60
2023-01-20T08:02:38.327Z,24.60
2023-01-20T08:03:41.910Z,25.40
2023-01-20T08:04:45.090Z,25.20
2023-01-20T08:05:48.033Z,25.50
2023-01-20T08:06:51.072Z,25.40
2023-01-20T08:07:54.103Z,24.50
2023-01-20T08:09:00.725Z,24.50
2023-01-20T08:10:04.430Z,24.10
2023-01-20T08:11:08.913Z,25.40
2023-01-20T08:12:12.161Z,24.70
2023-01-20T08:13:15.343Z,24.50
2023-01-20T08:14:18.320Z,23.60
2023-01-20T08:15:21.273Z,24.20
2023-01-20T08:16:24.262Z,25.70
2023-01-20T08:17:27.502Z,24.60
2023-01-20T08:18:32.547Z,24.50
2023-01-20T08:19:35.648Z,24.40
2023-01-20T08:20:41.978Z,24.40
2023-01-20T08:21:44.990Z,23.50
2023-01-20T08:22:48.114Z,26.60
2023-01-20T08:23:52.098Z,23.50
2023-01-20T08:24:55.140Z,24.00
2023-01-20T08:26:00.026Z,25.60
2023-01-20T08:27:03.240Z,25.50
2023-01-20T08:28:06.204Z,23.90
2023-01-20T08:29:10.240Z,23.60
2023-01-20T08:30:13.589Z,23.80
2023-01-20T08:31:19.685Z,24.90
2023-01-20T08:32:22.840Z,23.00
2023-01-20T08:33:25.817Z,23.80
2023-01-20T08:34:29.308Z,24.40
2023-01-20T08:35:34.323Z,22.80
2023-01-20T08:36:40.537Z,22.60
2023-01-20T08:37:43.523Z,26.20
2023-01-20T08:38:48.164Z,23.30
2023-01-20T08:39:51.355Z,23.90
2023-01-20T08:40:54.331Z,23.00
2023-01-20T08:41:57.369Z,24.40
2023-01-20T08:43:00.854Z,23.00
2023-01-20T08:44:06.590Z,23.40
2023-01-20T08:45:10.092Z,23.00
2023-01-20T08:46:15.067Z,23.50
2023-01-20T08:47:18.057Z,23.10
2023-01-20T08:48:21.549Z,25.20
2023-01-20T08:49:24.597Z,23.90
2023-01-20T08:50:27.585Z,23.80
2023-01-20T08:51:31.872Z,23.90
2023-01-20T08:52:35.510Z,24.10
2023-01-20T08:53:38.611Z,23.40
2023-01-20T08:54:41.857Z,24.10
2023-01-20T08:55:45.303Z,23.90
2023-01-20T08:56:53.194Z,23.00
2023-01-20T08:57:56.488Z,22.90
2023-01-20T08:58:59.963Z,23.50
2023-01-20T09:00:05.867Z,23.50
2023-01-20T09:01:18.716Z,23.70
2023-01-20T09:02:23.398Z,22.60
2023-01-20T09:03:27.875Z,23.40
2023-01-20T09:04:30.904Z,22.00
2023-01-20T09:05:36.372Z,22.70
2023-01-20T09:06:45.894Z,22.00
2023-01-20T09:07:48.842Z,21.10
2023-01-20T09:08:53.150Z,20.60
2023-01-20T09:09:56.225Z,20.20
2023-01-20T09:11:08.614Z,20.50
2023-01-20T09:12:12.274Z,21.00
2023-01-20T09:13:15.224Z,20.70
2023-01-20T09:14:20.032Z,21.00
2023-01-20T09:15:25.470Z,19.80
2023-01-20T09:16:29.531Z,20.70
2023-01-20T09:17:32.669Z,19.70
2023-01-20T09:18:35.761Z,20.50
2023-01-20T09:19:38.644Z,20.20
2023-01-20T09:20:41.531Z,20.00
2023-01-20T09:21:44.734Z,19.20
2023-01-20T09:22:47.851Z,19.50
2023-01-20T09:23:51.293Z,20.10
2023-01-20T09:24:54.763Z,20.20
2023-01-20T09:25:59.906Z,20.30
2023-01-20T09:27:02.993Z,20.20
2023-01-20T09:28:06.770Z,19.70
2023-01-20T09:29:13.199Z,20.50
2023-01-20T09:30:16.457Z,20.20
2023-01-20T09:31:19.765Z,20.00
2023-01-20T09:32:22.879Z,20.10
2023-01-20T09:33:25.865Z,20.50
2023-01-20T09:34:29.577Z,21.20
2023-01-20T09:35:32.696Z,20.60
2023-01-20T09:36:35.945Z,20.40
2023-01-20T09:37:58.032Z,21.50
2023-01-20T09:39:19.990Z,20.70
2023-01-20T09:41:02.750Z,20.10
2023-01-20T09:42:40.849Z,20.00
2023-01-20T09:44:25.865Z,20.40
2023-01-20T09:45:42.951Z,21.10
2023-01-20T09:47:20.464Z,19.30
2023-01-20T09:49:13.550Z,20.70
2023-01-20T09:50:35.157Z,19.20
2023-01-20T09:52:29.991Z,19.60
2023-01-20T09:53:48.180Z,20.40
2023-01-20T09:55:15.665Z,20.90
2023-01-20T09:56:22.444Z,20.10
2023-01-20T09:57:31.228Z,20.40
2023-01-20T09:59:01.241Z,19.70
2023-01-20T10:00:17.727Z,19.60
2023-01-20T10:01:30.958Z,21.00
2023-01-20T10:02:36.435Z,19.70
2023-01-20T10:03:52.864Z,19.10
2023-01-20T10:05:18.797Z,21.30
2023-01-20T10:06:28.830Z,21.00
2023-01-20T10:07:42.603Z,20.80
2023-01-20T10:09:05.068Z,19.70
2023-01-20T10:10:21.109Z,20.20
2023-01-20T10:11:26.245Z,21.00
2023-01-20T10:12:33.986Z,20.10
2023-01-20T10:13:51.483Z,21.60
2023-01-20T10:15:14.864Z,20.70
2023-01-20T10:16:40.649Z,20.60
2023-01-20T10:17:48.140Z,19.80
2023-01-20T10:18:57.383Z,21.00
2023-01-20T10:20:17.520Z,20.40
2023-01-20T10:21:25.160Z,19.40
2023-01-20T10:22:43.218Z,19.10
2023-01-20T10:23:59.660Z,20.40
2023-01-20T10:25:18.385Z,19.60
2023-01-20T10:26:44.813Z,19.90
2023-01-20T10:28:31.600Z,20.40
2023-01-20T10:29:36.386Z,19.00
2023-01-20T10:30:40.231Z,20.40
2023-01-20T10:31:51.383Z,18.50
2023-01-20T10:33:12.237Z,20.30
2023-01-20T10:34:20.876Z,20.60
2023-01-20T10:35:29.084Z,21.10
2023-01-20T10:36:35.298Z,21.00
2023-01-20T10:37:38.779Z,21.30
2023-01-20T10:38:56.043Z,22.10
2023-01-20T10:40:29.620Z,22.10
2023-01-20T10:41:41.845Z,21.50
2023-01-20T10:42:56.701Z,21.40
2023-01-20T10:44:02.084Z,21.80
2023-01-20T10:45:18.097Z,20.90
2023-01-20T10:46:35.467Z,21.40
2023-01-20T10:47:56.735Z,21.40
2023-01-20T10:49:19.711Z,20.50
2023-01-20T10:50:51.761Z,21.00
2023-01-20T10:52:19.245Z,21.20
2023-01-20T10:53:33.587Z,20.80
2023-01-20T10:54:55.528Z,21.60
2023-01-20T10:56:53.710Z,20.50
2023-01-20T10:58:09.030Z,20.60
2023-01-20T10:59:16.777Z,21.30
2023-01-20T11:00:31.257Z,21.10
2023-01-20T11:01:36.044Z,22.00
2023-01-20T11:02:41.619Z,22.30
2023-01-20T11:03:48.589Z,22.90
2023-01-20T11:05:01.159Z,21.50
2023-01-20T11:06:04.613Z,22.40
2023-01-20T11:07:17.642Z,23.00
2023-01-20T11:08:24.086Z,22.50
2023-01-20T11:09:34.852Z,23.70
2023-01-20T11:10:37.888Z,23.00
2023-01-20T11:11:44.000Z,24.00
2023-01-20T11:12:51.427Z,23.90
2023-01-20T11:13:54.613Z,24.40
2023-01-20T11:15:00.330Z,23.60
2023-01-20T11:16:11.461Z,25.00
2023-01-20T11:17:18.235Z,24.40
2023-01-20T11:18:28.077Z,24.10
2023-01-20T11:19:54.470Z,25.60
2023-01-20T11:21:00.147Z,25.10
2023-01-20T11:22:34.353Z,25.70
2023-01-20T11:23:39.664Z,25.20
2023-01-20T11:24:45.214Z,27.20
2023-01-20T11:25:58.820Z,26.30
2023-01-20T11:27:14.566Z,26.80
2023-01-20T11:28:19.861Z,26.10
2023-01-20T11:29:30.496Z,25.90
2023-01-20T11:30:35.735Z,26.30
2023-01-20T11:31:41.052Z,27.40
2023-01-20T11:32:44.489Z,27.40
2023-01-20T11:34:03.092Z,28.50
2023-01-20T11:35:26.051Z,28.40
2023-01-20T11:36:29.832Z,27.30
2023-01-20T11:37:41.071Z,27.60
2023-01-20T11:38:46.651Z,27.50
2023-01-20T11:39:49.637Z,27.60
2023-01-20T11:40:58.449Z,26.00
2023-01-20T11:42:16.449Z,25.00
2023-01-20T11:43:36.019Z,24.50
2023-01-20T11:44:48.985Z,25.90
2023-01-20T11:45:52.656Z,25.50
2023-01-20T11:46:58.330Z,24.60
2023-01-20T11:48:08.508Z,25.70
2023-01-20T11:49:16.657Z,24.90
2023-01-20T11:50:33.053Z,24.50
2023-01-20T11:51:54.943Z,25.70
2023-01-20T11:53:19.420Z,26.60
2023-01-20T11:54:24.930Z,25.70
2023-01-20T11:55:27.837Z,26.40
2023-01-20T11:56:37.989Z,26.90
2023-01-20T11:57:57.516Z,26.80
2023-01-20T11:59:04.349Z,26.30
2023-01-20T12:00:19.288Z,26.50
2023-01-20T12:01:27.731Z,26.90
2023-01-20T12:02:30.653Z,25.50
2023-01-20T12:04:09.172Z,25.70
2023-01-20T12:05:22.999Z,25.40
2023-01-20T12:06:29.948Z,26.00
2023-01-20T12:07:41.835Z,27.00
2023-01-20T12:09:01.219Z,26.10
2023-01-20T12:10:19.734Z,26.50
2023-01-20T12:11:46.773Z,26.90
2023-01-20T12:12:54.552Z,26.60
2023-01-20T12:14:20.686Z,25.60
2023-01-20T12:15:28.076Z,25.60
2023-01-20T12:16:33.179Z,27.00
2023-01-20T12:17:45.746Z,27.60
2023-01-20T12:19:09.859Z,27.30
2023-01-20T12:20:54.575Z,26.50
2023-01-20T12:22:03.573Z,26.80
2023-01-20T12:23:45.791Z,27.50
2023-01-20T12:25:10.389Z,25.60
2023-01-20T12:26:16.240Z,26.80
2023-01-20T12:27:25.869Z,27.50
2023-01-20T12:28:46.106Z,28.40
2023-01-20T12:29:55.111Z,26.20
2023-01-20T12:31:00.681Z,27.00
2023-01-20T12:32:04.398Z,27.90
2023-01-20T12:33:38.587Z,27.70
2023-01-20T12:34:41.496Z,27.20
2023-01-20T12:36:08.667Z,28.00
2023-01-20T12:37:20.584Z,27.60
2023-01-20T12:38:24.570Z,26.90
2023-01-20T12:40:15.916Z,29.00
2023-01-20T12:42:58.214Z,26.60
2023-01-20T12:44:22.468Z,26.70
2023-01-20T12:45:52.589Z,26.20
2023-01-20T12:47:07.906Z,29.00
2023-01-20T12:48:31.392Z,28.10
2023-01-20T12:49:59.419Z,27.90
2023-01-20T12:51:21.329Z,27.60
2023-01-20T12:52:39.818Z,28.00
2023-01-20T12:54:01.747Z,27.00
2023-01-20T12:55:19.008Z,29.10
2023-01-20T12:56:59.699Z,29.00
2023-01-20T12:58:30.212Z,32.50
2023-01-20T13:00:10.031Z,32.60
2023-01-20T13:01:51.102Z,32.30
2023-01-20T13:03:14.563Z,32.30
2023-01-20T13:04:36.662Z,31.80
2023-01-20T13:06:05.816Z,31.10
2023-01-20T13:07:31.857Z,31.90
2023-01-20T13:08:46.890Z,33.80
2023-01-20T13:10:04.819Z,31.90
2023-01-20T13:11:13.799Z,30.90
2023-01-20T13:12:39.860Z,32.60
2023-01-20T13:13:58.053Z,31.50
2023-01-20T13:15:28.311Z,30.70
2023-01-20T13:16:52.507Z,32.50
2023-01-20T13:18:34.278Z,32.80
2023-01-20T13:19:40.107Z,32.40
2023-01-20T13:20:49.223Z,32.00
2023-01-20T13:22:06.904Z,32.00
2023-01-20T13:23:20.665Z,33.20
2023-01-20T13:24:29.325Z,31.90
2023-01-20T13:25:35.176Z,31.80
2023-01-20T13:26:38.574Z,32.20
2023-01-20T13:27:41.889Z,31.20
2023-01-20T13:28:54.330Z,31.40
2023-01-20T13:29:59.894Z,32.00
2023-01-20T13:31:35.847Z,31.50
2023-01-20T13:32:49.181Z,32.10
2023-01-20T13:33:56.208Z,32.00
2023-01-20T13:35:03.081Z,32.30
2023-01-20T13:36:21.684Z,32.40
2023-01-20T13:37:32.749Z,31.10
2023-01-20T13:38:39.710Z,32.70
2023-01-20T13:39:48.910Z,32.20
2023-01-20T13:40:54.780Z,33.50
2023-01-20T13:41:57.725Z,31.10
2023-01-20T13:43:04.802Z,31.20
2023-01-20T13:44:45.932Z,31.80
2023-01-20T13:46:09.418Z,31.20
2023-01-20T13:48:00.314Z,32.20
2023-01-20T13:49:15.665Z,31.80
2023-01-20T13:50:28.161Z,30.40
2023-01-20T13:51:37.636Z,31.60
2023-01-20T13:52:52.884Z,33.00
